sensor_id;sensor_type;location;lat;lon;timestamp;temperature;humidity
18712;DHT22;9485;49.386;8.674;2023-02-14T00:01:47;5.60;74.90
18712;DHT22;9485;49.386;8.674;2023-02-14T00:07:08;5.60;75.10
18712;DHT22;9485;49.386;8.674;2023-02-14T00:12:28;5.50;75.10
18712;DHT22;9485;49.386;8.674;2023-02-14T00:17:52;5.50;75.00
18712;DHT22;9485;49.386;8.674;2023-02-14T00:23:14;5.50;75.20
18712;DHT22;9485;49.386;8.674;2023-02-14T00:28:35;5.40;75.20
18712;DHT22;9485;49.386;8.674;2023-02-14T00:33:56;5.40;75.40
18712;DHT22;9485;49.386;8.674;2023-02-14T00:39:18;5.30;75.50
18712;DHT22;9485;49.386;8.674;2023-02-14T00:44:39;5.30;75.60
18712;DHT22;9485;49.386;8.674;2023-02-14T00:50:01;5.20;75.70
18712;DHT22;9485;49.386;8.674;2023-02-14T00:55:23;5.20;75.80
18712;DHT22;9485;49.386;8.674;2023-02-14T01:00:43;5.20;75.90
18712;DHT22;9485;49.386;8.674;2023-02-14T01:06:06;5.10;76.00
18712;DHT22;9485;49.386;8.674;2023-02-14T01:11:27;5.10;75.90
18712;DHT22;9485;49.386;8.674;2023-02-14T01:16:48;5.00;75.90
18712;DHT22;9485;49.386;8.674;2023-02-14T01:22:10;5.00;76.00
18712;DHT22;9485;49.386;8.674;2023-02-14T01:27:31;4.90;75.90
18712;DHT22;9485;49.386;8.674;2023-02-14T01:32:51;4.80;76.00
18712;DHT22;9485;49.386;8.674;2023-02-14T01:38:14;4.80;76.10
18712;DHT22;9485;49.386;8.674;2023-02-14T01:43:49;4.80;76.40
18712;DHT22;9485;49.386;8.674;2023-02-14T01:49:20;4.70;76.60
18712;DHT22;9485;49.386;8.674;2023-02-14T01:54:48;4.70;76.60
18712;DHT22;9485;49.386;8.674;2023-02-14T02:00:14;4.70;76.80
18712;DHT22;9485;49.386;8.674;2023-02-14T02:05:56;4.60;76.80
18712;DHT22;9485;49.386;8.674;2023-02-14T02:11:24;4.60;76.90
18712;DHT22;9485;49.386;8.674;2023-02-14T02:29:14;4.50;77.10
18712;DHT22;9485;49.386;8.674;2023-02-14T02:35:12;4.40;77.20
18712;DHT22;9485;49.386;8.674;2023-02-14T02:40:46;4.40;77.30
18712;DHT22;9485;49.386;8.674;2023-02-14T02:46:20;4.30;77.10
18712;DHT22;9485;49.386;8.674;2023-02-14T02:52:07;4.30;77.10
18712;DHT22;9485;49.386;8.674;2023-02-14T02:57:52;4.20;77.00
18712;DHT22;9485;49.386;8.674;2023-02-14T03:03:14;4.20;77.10
18712;DHT22;9485;49.386;8.674;2023-02-14T03:08:54;4.10;77.10
18712;DHT22;9485;49.386;8.674;2023-02-14T03:14:18;4.10;77.10
18712;DHT22;9485;49.386;8.674;2023-02-14T03:19:52;4.00;77.20
18712;DHT22;9485;49.386;8.674;2023-02-14T03:25:42;4.00;77.20
18712;DHT22;9485;49.386;8.674;2023-02-14T03:31:18;3.90;77.30
18712;DHT22;9485;49.386;8.674;2023-02-14T03:36:49;3.90;77.30
18712;DHT22;9485;49.386;8.674;2023-02-14T03:42:19;3.80;77.30
18712;DHT22;9485;49.386;8.674;2023-02-14T03:47:44;3.80;77.50
18712;DHT22;9485;49.386;8.674;2023-02-14T03:53:09;3.80;77.50
18712;DHT22;9485;49.386;8.674;2023-02-14T03:58:35;3.70;77.50
18712;DHT22;9485;49.386;8.674;2023-02-14T04:03:59;3.70;77.60
18712;DHT22;9485;49.386;8.674;2023-02-14T04:09:23;3.70;77.50
18712;DHT22;9485;49.386;8.674;2023-02-14T04:14:45;3.60;77.60
18712;DHT22;9485;49.386;8.674;2023-02-14T04:20:06;3.60;77.70
18712;DHT22;9485;49.386;8.674;2023-02-14T04:25:27;3.60;77.80
18712;DHT22;9485;49.386;8.674;2023-02-14T04:30:49;3.60;77.80
18712;DHT22;9485;49.386;8.674;2023-02-14T04:36:10;3.50;77.60
18712;DHT22;9485;49.386;8.674;2023-02-14T04:41:31;3.50;77.60
18712;DHT22;9485;49.386;8.674;2023-02-14T04:46:53;3.40;77.60
18712;DHT22;9485;49.386;8.674;2023-02-14T04:52:14;3.30;77.70
18712;DHT22;9485;49.386;8.674;2023-02-14T04:57:35;3.30;77.90
18712;DHT22;9485;49.386;8.674;2023-02-14T05:02:56;3.30;78.10
18712;DHT22;9485;49.386;8.674;2023-02-14T05:08:17;3.30;78.20
18712;DHT22;9485;49.386;8.674;2023-02-14T05:13:37;3.30;78.20
18712;DHT22;9485;49.386;8.674;2023-02-14T05:18:59;3.30;78.30
18712;DHT22;9485;49.386;8.674;2023-02-14T05:24:20;3.30;78.20
18712;DHT22;9485;49.386;8.674;2023-02-14T05:29:40;3.30;78.20
18712;DHT22;9485;49.386;8.674;2023-02-14T05:35:02;3.20;78.00
18712;DHT22;9485;49.386;8.674;2023-02-14T05:40:23;3.10;78.00
18712;DHT22;9485;49.386;8.674;2023-02-14T05:45:44;3.10;77.80
18712;DHT22;9485;49.386;8.674;2023-02-14T05:51:08;3.00;77.90
18712;DHT22;9485;49.386;8.674;2023-02-14T05:56:30;3.00;78.30
18712;DHT22;9485;49.386;8.674;2023-02-14T06:01:50;3.00;78.50
18712;DHT22;9485;49.386;8.674;2023-02-14T06:07:12;3.00;78.60
18712;DHT22;9485;49.386;8.674;2023-02-14T06:12:32;3.00;78.60
18712;DHT22;9485;49.386;8.674;2023-02-14T06:17:54;3.00;78.50
18712;DHT22;9485;49.386;8.674;2023-02-14T06:23:17;3.00;78.70
18712;DHT22;9485;49.386;8.674;2023-02-14T06:28:38;3.00;78.70
18712;DHT22;9485;49.386;8.674;2023-02-14T06:33:59;3.00;78.80
18712;DHT22;9485;49.386;8.674;2023-02-14T06:39:21;3.00;78.70
18712;DHT22;9485;49.386;8.674;2023-02-14T06:44:41;3.00;78.60
18712;DHT22;9485;49.386;8.674;2023-02-14T06:50:03;3.00;78.80
18712;DHT22;9485;49.386;8.674;2023-02-14T06:55:26;3.00;79.00
18712;DHT22;9485;49.386;8.674;2023-02-14T07:00:47;3.00;79.00
18712;DHT22;9485;49.386;8.674;2023-02-14T07:06:07;3.00;79.10
18712;DHT22;9485;49.386;8.674;2023-02-14T07:11:29;3.00;79.10
18712;DHT22;9485;49.386;8.674;2023-02-14T07:16:50;3.10;79.20
18712;DHT22;9485;49.386;8.674;2023-02-14T07:22:10;3.10;80.00
18712;DHT22;9485;49.386;8.674;2023-02-14T07:27:32;3.10;79.40
18712;DHT22;9485;49.386;8.674;2023-02-14T07:32:55;3.20;79.60
18712;DHT22;9485;49.386;8.674;2023-02-14T07:38:16;3.30;79.70
18712;DHT22;9485;49.386;8.674;2023-02-14T07:43:38;3.30;80.50
18712;DHT22;9485;49.386;8.674;2023-02-14T07:48:59;3.40;80.00
18712;DHT22;9485;49.386;8.674;2023-02-14T07:54:19;3.60;80.30
18712;DHT22;9485;49.386;8.674;2023-02-14T07:59:41;3.70;80.60
18712;DHT22;9485;49.386;8.674;2023-02-14T08:05:02;3.90;81.00
18712;DHT22;9485;49.386;8.674;2023-02-14T08:10:23;4.10;81.40
18712;DHT22;9485;49.386;8.674;2023-02-14T08:15:44;4.40;82.00
18712;DHT22;9485;49.386;8.674;2023-02-14T08:21:24;4.70;82.40
18712;DHT22;9485;49.386;8.674;2023-02-14T08:26:45;5.20;82.90
18712;DHT22;9485;49.386;8.674;2023-02-14T08:32:07;5.60;82.70
18712;DHT22;9485;49.386;8.674;2023-02-14T08:37:28;6.00;82.30
18712;DHT22;9485;49.386;8.674;2023-02-14T08:42:48;6.30;82.00
18712;DHT22;9485;49.386;8.674;2023-02-14T08:48:11;6.50;81.80
18712;DHT22;9485;49.386;8.674;2023-02-14T08:53:32;6.80;81.70
18712;DHT22;9485;49.386;8.674;2023-02-14T08:58:53;7.00;81.40
18712;DHT22;9485;49.386;8.674;2023-02-14T09:04:15;7.10;81.10
18712;DHT22;9485;49.386;8.674;2023-02-14T09:09:36;7.20;81.20
18712;DHT22;9485;49.386;8.674;2023-02-14T09:14:57;7.50;82.20
18712;DHT22;9485;49.386;8.674;2023-02-14T09:20:19;8.00;82.10
18712;DHT22;9485;49.386;8.674;2023-02-14T09:25:39;8.30;81.40
18712;DHT22;9485;49.386;8.674;2023-02-14T09:31:07;8.50;79.40
18712;DHT22;9485;49.386;8.674;2023-02-14T09:36:30;8.60;78.40
18712;DHT22;9485;49.386;8.674;2023-02-14T09:42:18;8.50;77.90
18712;DHT22;9485;49.386;8.674;2023-02-14T09:47:48;8.40;77.10
18712;DHT22;9485;49.386;8.674;2023-02-14T09:53:19;8.30;78.00
18712;DHT22;9485;49.386;8.674;2023-02-14T09:58:48;8.30;78.70
18712;DHT22;9485;49.386;8.674;2023-02-14T10:04:23;8.30;79.00
18712;DHT22;9485;49.386;8.674;2023-02-14T10:09:56;8.40;79.00
18712;DHT22;9485;49.386;8.674;2023-02-14T10:15:24;8.40;79.10
18712;DHT22;9485;49.386;8.674;2023-02-14T10:20:50;8.50;79.30
18712;DHT22;9485;49.386;8.674;2023-02-14T10:26:18;8.50;79.40
18712;DHT22;9485;49.386;8.674;2023-02-14T10:31:49;8.60;78.50
18712;DHT22;9485;49.386;8.674;2023-02-14T10:37:26;8.60;78.10
18712;DHT22;9485;49.386;8.674;2023-02-14T10:43:03;8.60;78.00
18712;DHT22;9485;49.386;8.674;2023-02-14T10:48:44;8.60;78.20
18712;DHT22;9485;49.386;8.674;2023-02-14T10:54:17;8.60;77.90
18712;DHT22;9485;49.386;8.674;2023-02-14T10:59:49;8.60;77.90
18712;DHT22;9485;49.386;8.674;2023-02-14T11:05:23;8.70;78.00
18712;DHT22;9485;49.386;8.674;2023-02-14T11:10:46;8.70;77.60
18712;DHT22;9485;49.386;8.674;2023-02-14T11:16:10;8.70;77.90
18712;DHT22;9485;49.386;8.674;2023-02-14T11:21:38;8.70;78.30
18712;DHT22;9485;49.386;8.674;2023-02-14T11:27:03;8.70;78.50
18712;DHT22;9485;49.386;8.674;2023-02-14T11:32:28;8.80;78.30
18712;DHT22;9485;49.386;8.674;2023-02-14T11:37:54;8.80;78.20
18712;DHT22;9485;49.386;8.674;2023-02-14T11:43:29;8.80;78.40
18712;DHT22;9485;49.386;8.674;2023-02-14T11:48:58;8.90;77.90
18712;DHT22;9485;49.386;8.674;2023-02-14T11:54:32;8.90;77.80
18712;DHT22;9485;49.386;8.674;2023-02-14T11:59:56;8.90;77.90
18712;DHT22;9485;49.386;8.674;2023-02-14T12:05:22;9.00;78.50
18712;DHT22;9485;49.386;8.674;2023-02-14T12:11:00;9.10;78.50
18712;DHT22;9485;49.386;8.674;2023-02-14T12:16:25;9.20;78.50
18712;DHT22;9485;49.386;8.674;2023-02-14T12:21:57;9.30;78.40
18712;DHT22;9485;49.386;8.674;2023-02-14T12:27:24;9.50;78.30
18712;DHT22;9485;49.386;8.674;2023-02-14T12:32:50;9.60;78.50
18712;DHT22;9485;49.386;8.674;2023-02-14T12:38:22;9.70;77.70
18712;DHT22;9485;49.386;8.674;2023-02-14T12:43:51;9.80;77.90
18712;DHT22;9485;49.386;8.674;2023-02-14T12:49:25;10.00;78.40
18712;DHT22;9485;49.386;8.674;2023-02-14T12:55:08;10.20;78.00
18712;DHT22;9485;49.386;8.674;2023-02-14T13:00:55;10.40;77.20
18712;DHT22;9485;49.386;8.674;2023-02-14T13:06:27;10.60;76.80
18712;DHT22;9485;49.386;8.674;2023-02-14T13:11:58;10.90;77.90
18712;DHT22;9485;49.386;8.674;2023-02-14T13:17:31;11.20;78.40
18712;DHT22;9485;49.386;8.674;2023-02-14T13:23:00;11.50;77.90
18712;DHT22;9485;49.386;8.674;2023-02-14T13:28:28;11.80;77.40
18712;DHT22;9485;49.386;8.674;2023-02-14T13:33:53;11.90;75.90
18712;DHT22;9485;49.386;8.674;2023-02-14T13:39:24;11.90;75.50
18712;DHT22;9485;49.386;8.674;2023-02-14T13:44:50;11.90;75.70
18712;DHT22;9485;49.386;8.674;2023-02-14T13:50:19;12.00;76.40
18712;DHT22;9485;49.386;8.674;2023-02-14T13:55:43;12.10;74.90
18712;DHT22;9485;49.386;8.674;2023-02-14T14:01:28;12.10;73.40
18712;DHT22;9485;49.386;8.674;2023-02-14T14:07:16;11.90;72.10
18712;DHT22;9485;49.386;8.674;2023-02-14T14:12:42;11.70;71.60
18712;DHT22;9485;49.386;8.674;2023-02-14T14:18:30;11.50;72.80
18712;DHT22;9485;49.386;8.674;2023-02-14T14:24:18;11.30;71.00
18712;DHT22;9485;49.386;8.674;2023-02-14T14:29:45;11.00;71.40
18712;DHT22;9485;49.386;8.674;2023-02-14T14:35:18;10.80;73.30
18712;DHT22;9485;49.386;8.674;2023-02-14T14:40:45;10.70;73.40
18712;DHT22;9485;49.386;8.674;2023-02-14T14:46:10;10.50;73.90
18712;DHT22;9485;49.386;8.674;2023-02-14T14:51:34;10.40;74.00
18712;DHT22;9485;49.386;8.674;2023-02-14T14:56:58;10.30;73.80
18712;DHT22;9485;49.386;8.674;2023-02-14T15:02:23;10.20;74.20
18712;DHT22;9485;49.386;8.674;2023-02-14T15:07:49;10.10;73.90
18712;DHT22;9485;49.386;8.674;2023-02-14T15:13:11;10.00;74.10
18712;DHT22;9485;49.386;8.674;2023-02-14T15:18:53;9.90;74.60
18712;DHT22;9485;49.386;8.674;2023-02-14T15:24:18;9.70;74.10
18712;DHT22;9485;49.386;8.674;2023-02-14T15:29:39;9.60;74.60
18712;DHT22;9485;49.386;8.674;2023-02-14T15:35:02;9.50;74.90
18712;DHT22;9485;49.386;8.674;2023-02-14T15:40:28;9.40;75.10
18712;DHT22;9485;49.386;8.674;2023-02-14T15:45:54;9.20;75.20
18712;DHT22;9485;49.386;8.674;2023-02-14T15:51:19;9.10;75.30
18712;DHT22;9485;49.386;8.674;2023-02-14T15:56:44;9.00;75.30
18712;DHT22;9485;49.386;8.674;2023-02-14T16:02:20;8.90;75.30
18712;DHT22;9485;49.386;8.674;2023-02-14T16:07:59;8.80;75.00
18712;DHT22;9485;49.386;8.674;2023-02-14T16:13:28;8.60;75.10
18712;DHT22;9485;49.386;8.674;2023-02-14T16:18:52;8.40;75.30
18712;DHT22;9485;49.386;8.674;2023-02-14T16:24:15;8.20;75.50
18712;DHT22;9485;49.386;8.674;2023-02-14T16:33:49;7.70;74.80
18712;DHT22;9485;49.386;8.674;2023-02-14T16:39:13;7.70;76.10
18712;DHT22;9485;49.386;8.674;2023-02-14T16:44:35;7.50;76.10
18712;DHT22;9485;49.386;8.674;2023-02-14T16:49:57;7.30;76.30
18712;DHT22;9485;49.386;8.674;2023-02-14T16:55:18;7.10;76.40
18712;DHT22;9485;49.386;8.674;2023-02-14T17:00:40;6.90;76.50
18712;DHT22;9485;49.386;8.674;2023-02-14T17:06:02;6.70;76.60
18712;DHT22;9485;49.386;8.674;2023-02-14T17:11:26;6.50;76.70
18712;DHT22;9485;49.386;8.674;2023-02-14T17:16:49;6.40;76.80
18712;DHT22;9485;49.386;8.674;2023-02-14T17:22:12;6.20;76.70
18712;DHT22;9485;49.386;8.674;2023-02-14T17:27:33;6.00;76.70
18712;DHT22;9485;49.386;8.674;2023-02-14T17:32:54;5.80;76.90
18712;DHT22;9485;49.386;8.674;2023-02-14T17:38:16;5.70;77.20
18712;DHT22;9485;49.386;8.674;2023-02-14T17:43:38;5.50;77.50
18712;DHT22;9485;49.386;8.674;2023-02-14T17:48:59;5.40;77.70
18712;DHT22;9485;49.386;8.674;2023-02-14T17:54:22;5.30;77.80
18712;DHT22;9485;49.386;8.674;2023-02-14T17:59:43;5.20;78.00
18712;DHT22;9485;49.386;8.674;2023-02-14T18:05:05;5.10;78.20
18712;DHT22;9485;49.386;8.674;2023-02-14T18:10:27;5.00;78.50
18712;DHT22;9485;49.386;8.674;2023-02-14T18:15:48;5.00;78.70
18712;DHT22;9485;49.386;8.674;2023-02-14T18:21:11;4.90;79.10
18712;DHT22;9485;49.386;8.674;2023-02-14T18:26:35;4.80;79.50
18712;DHT22;9485;49.386;8.674;2023-02-14T18:31:57;4.90;80.20
18712;DHT22;9485;49.386;8.674;2023-02-14T18:37:17;4.80;80.60
18712;DHT22;9485;49.386;8.674;2023-02-14T18:42:39;4.90;81.00
18712;DHT22;9485;49.386;8.674;2023-02-14T18:48:00;5.00;81.30
18712;DHT22;9485;49.386;8.674;2023-02-14T18:53:21;5.20;81.60
18712;DHT22;9485;49.386;8.674;2023-02-14T18:58:45;5.20;81.70
18712;DHT22;9485;49.386;8.674;2023-02-14T19:04:09;5.30;81.70
18712;DHT22;9485;49.386;8.674;2023-02-14T19:09:31;5.40;81.90
18712;DHT22;9485;49.386;8.674;2023-02-14T19:14:58;5.40;81.90
18712;DHT22;9485;49.386;8.674;2023-02-14T19:20:19;5.50;82.20
18712;DHT22;9485;49.386;8.674;2023-02-14T19:25:40;5.50;82.20
18712;DHT22;9485;49.386;8.674;2023-02-14T19:31:02;5.50;82.30
18712;DHT22;9485;49.386;8.674;2023-02-14T19:36:23;5.60;82.50
18712;DHT22;9485;49.386;8.674;2023-02-14T19:41:45;5.60;82.50
18712;DHT22;9485;49.386;8.674;2023-02-14T19:47:08;5.60;82.60
18712;DHT22;9485;49.386;8.674;2023-02-14T19:52:29;5.70;82.80
18712;DHT22;9485;49.386;8.674;2023-02-14T19:57:50;5.70;82.90
18712;DHT22;9485;49.386;8.674;2023-02-14T20:03:11;5.80;82.90
18712;DHT22;9485;49.386;8.674;2023-02-14T20:08:32;5.80;83.00
18712;DHT22;9485;49.386;8.674;2023-02-14T20:13:53;5.80;83.00
18712;DHT22;9485;49.386;8.674;2023-02-14T20:19:17;5.90;83.00
18712;DHT22;9485;49.386;8.674;2023-02-14T20:24:39;5.90;83.10
18712;DHT22;9485;49.386;8.674;2023-02-14T20:30:00;6.00;83.00
18712;DHT22;9485;49.386;8.674;2023-02-14T20:35:22;6.00;83.10
18712;DHT22;9485;49.386;8.674;2023-02-14T20:40:43;6.00;83.10
18712;DHT22;9485;49.386;8.674;2023-02-14T20:46:04;6.00;82.90
18712;DHT22;9485;49.386;8.674;2023-02-14T20:51:28;5.90;82.80
18712;DHT22;9485;49.386;8.674;2023-02-14T20:56:49;5.90;82.90
18712;DHT22;9485;49.386;8.674;2023-02-14T21:02:09;5.90;83.10
18712;DHT22;9485;49.386;8.674;2023-02-14T21:07:32;5.90;83.30
18712;DHT22;9485;49.386;8.674;2023-02-14T21:12:52;5.90;83.30
18712;DHT22;9485;49.386;8.674;2023-02-14T21:18:13;6.00;83.40
18712;DHT22;9485;49.386;8.674;2023-02-14T21:23:35;5.90;83.30
18712;DHT22;9485;49.386;8.674;2023-02-14T21:28:56;5.90;83.40
18712;DHT22;9485;49.386;8.674;2023-02-14T21:34:17;5.90;83.40
18712;DHT22;9485;49.386;8.674;2023-02-14T21:39:40;5.90;83.40
18712;DHT22;9485;49.386;8.674;2023-02-14T21:45:00;5.80;83.50
18712;DHT22;9485;49.386;8.674;2023-02-14T21:50:38;5.80;84.20
18712;DHT22;9485;49.386;8.674;2023-02-14T21:56:04;5.70;83.50
18712;DHT22;9485;49.386;8.674;2023-02-14T22:01:29;5.70;83.80
18712;DHT22;9485;49.386;8.674;2023-02-14T22:06:52;5.70;83.80
18712;DHT22;9485;49.386;8.674;2023-02-14T22:12:14;5.70;83.80
18712;DHT22;9485;49.386;8.674;2023-02-14T22:17:34;5.70;83.90
18712;DHT22;9485;49.386;8.674;2023-02-14T22:22:55;5.60;83.90
18712;DHT22;9485;49.386;8.674;2023-02-14T22:28:17;5.60;84.10
18712;DHT22;9485;49.386;8.674;2023-02-14T22:33:38;5.60;84.10
18712;DHT22;9485;49.386;8.674;2023-02-14T22:38:59;5.60;84.10
18712;DHT22;9485;49.386;8.674;2023-02-14T22:44:21;5.60;84.00
18712;DHT22;9485;49.386;8.674;2023-02-14T22:49:41;5.60;84.10
18712;DHT22;9485;49.386;8.674;2023-02-14T22:55:02;5.60;84.20
18712;DHT22;9485;49.386;8.674;2023-02-14T23:00:24;5.60;84.30
18712;DHT22;9485;49.386;8.674;2023-02-14T23:05:45;5.60;84.40
18712;DHT22;9485;49.386;8.674;2023-02-14T23:11:08;5.50;84.30
18712;DHT22;9485;49.386;8.674;2023-02-14T23:16:31;5.60;84.40
18712;DHT22;9485;49.386;8.674;2023-02-14T23:22:11;5.50;84.20
18712;DHT22;9485;49.386;8.674;2023-02-14T23:27:35;5.50;84.30
18712;DHT22;9485;49.386;8.674;2023-02-14T23:32:59;5.40;84.30
18712;DHT22;9485;49.386;8.674;2023-02-14T23:38:19;5.40;84.30
18712;DHT22;9485;49.386;8.674;2023-02-14T23:43:40;5.50;84.50
18712;DHT22;9485;49.386;8.674;2023-02-14T23:49:02;5.40;84.50
18712;DHT22;9485;49.386;8.674;2023-02-14T23:54:24;5.50;84.60
18712;DHT22;9485;49.386;8.674;2023-02-14T23:59:45;5.40;84.40
